sensor_id;sensor_type;location;lat;lon;timestamp;P1;durP1;ratioP1;P2;durP2;ratioP2
43744;SDS011;29359;53.048;8.732;2022-12-07T00:01:18;8.25;;;7.15;;
43744;SDS011;29359;53.048;8.732;2022-12-07T00:03:24;7.95;;;7.20;;
43744;SDS011;29359;53.048;8.732;2022-12-07T00:05:25;13.48;;;6.97;;
43744;SDS011;29359;53.048;8.732;2022-12-07T00:07:27;10.23;;;6.82;;
43744;SDS011;29359;53.048;8.732;2022-12-07T00:09:28;7.78;;;6.65;;
43744;SDS011;29359;53.048;8.732;2022-12-07T00:11:30;14.38;;;6.75;;
43744;SDS011;29359;53.048;8.732;2022-12-07T00:13:32;12.10;;;6.68;;
43744;SDS011;29359;53.048;8.732;2022-12-07T00:15:35;6.72;;;5.97;;
43744;SDS011;29359;53.048;8.732;2022-12-07T00:17:36;6.60;;;5.72;;
43744;SDS011;29359;53.048;8.732;2022-12-07T00:19:38;11.25;;;6.75;;
43744;SDS011;29359;53.048;8.732;2022-12-07T00:21:39;9.27;;;6.15;;
43744;SDS011;29359;53.048;8.732;2022-12-07T00:23:42;7.07;;;6.30;;
43744;SDS011;29359;53.048;8.732;2022-12-07T00:25:44;9.45;;;6.25;;
43744;SDS011;29359;53.048;8.732;2022-12-07T00:27:46;14.02;;;6.47;;
43744;SDS011;29359;53.048;8.732;2022-12-07T00:29:47;7.97;;;5.90;;
43744;SDS011;29359;53.048;8.732;2022-12-07T00:31:49;9.57;;;6.63;;
43744;SDS011;29359;53.048;8.732;2022-12-07T00:33:51;7.57;;;6.60;;
43744;SDS011;29359;53.048;8.732;2022-12-07T00:35:56;11.40;;;6.10;;
43744;SDS011;29359;53.048;8.732;2022-12-07T00:37:58;7.38;;;6.03;;
43744;SDS011;29359;53.048;8.732;2022-12-07T00:39:59;10.75;;;6.72;;
43744;SDS011;29359;53.048;8.732;2022-12-07T00:42:01;9.32;;;6.90;;
43744;SDS011;29359;53.048;8.732;2022-12-07T00:44:03;11.57;;;6.38;;
43744;SDS011;29359;53.048;8.732;2022-12-07T00:46:05;10.45;;;6.70;;
43744;SDS011;29359;53.048;8.732;2022-12-07T00:48:06;8.23;;;6.80;;
43744;SDS011;29359;53.048;8.732;2022-12-07T00:50:08;11.20;;;6.72;;
43744;SDS011;29359;53.048;8.732;2022-12-07T00:52:10;8.82;;;6.53;;
43744;SDS011;29359;53.048;8.732;2022-12-07T00:54:11;12.80;;;7.65;;
43744;SDS011;29359;53.048;8.732;2022-12-07T00:56:14;10.30;;;6.85;;
43744;SDS011;29359;53.048;8.732;2022-12-07T00:58:17;9.90;;;6.55;;
43744;SDS011;29359;53.048;8.732;2022-12-07T01:00:18;11.95;;;7.07;;
43744;SDS011;29359;53.048;8.732;2022-12-07T01:02:20;7.35;;;5.60;;
43744;SDS011;29359;53.048;8.732;2022-12-07T01:04:22;10.18;;;6.10;;
43744;SDS011;29359;53.048;8.732;2022-12-07T01:06:24;9.45;;;5.28;;
43744;SDS011;29359;53.048;8.732;2022-12-07T01:08:27;11.32;;;5.22;;
43744;SDS011;29359;53.048;8.732;2022-12-07T01:10:29;6.72;;;4.93;;
43744;SDS011;29359;53.048;8.732;2022-12-07T01:12:32;11.88;;;4.50;;
43744;SDS011;29359;53.048;8.732;2022-12-07T01:14:34;9.95;;;4.70;;
43744;SDS011;29359;53.048;8.732;2022-12-07T01:16:43;9.10;;;4.75;;
43744;SDS011;29359;53.048;8.732;2022-12-07T01:18:48;5.28;;;4.32;;
43744;SDS011;29359;53.048;8.732;2022-12-07T01:21:04;9.18;;;5.10;;
43744;SDS011;29359;53.048;8.732;2022-12-07T01:23:08;7.65;;;4.40;;
43744;SDS011;29359;53.048;8.732;2022-12-07T01:25:10;8.63;;;4.30;;
43744;SDS011;29359;53.048;8.732;2022-12-07T01:27:13;7.55;;;3.97;;
43744;SDS011;29359;53.048;8.732;2022-12-07T01:29:14;6.72;;;4.20;;
43744;SDS011;29359;53.048;8.732;2022-12-07T01:31:17;6.18;;;4.35;;
43744;SDS011;29359;53.048;8.732;2022-12-07T01:33:21;7.40;;;4.18;;
43744;SDS011;29359;53.048;8.732;2022-12-07T01:35:22;7.53;;;2.47;;
43744;SDS011;29359;53.048;8.732;2022-12-07T01:37:24;4.63;;;2.55;;
43744;SDS011;29359;53.048;8.732;2022-12-07T01:39:25;4.18;;;2.47;;
43744;SDS011;29359;53.048;8.732;2022-12-07T01:41:30;4.22;;;2.17;;
43744;SDS011;29359;53.048;8.732;2022-12-07T01:43:34;3.97;;;2.80;;
43744;SDS011;29359;53.048;8.732;2022-12-07T01:45:39;7.15;;;3.83;;
43744;SDS011;29359;53.048;8.732;2022-12-07T01:47:43;7.13;;;3.10;;
43744;SDS011;29359;53.048;8.732;2022-12-07T01:49:51;5.43;;;2.85;;
43744;SDS011;29359;53.048;8.732;2022-12-07T01:51:55;7.22;;;3.88;;
43744;SDS011;29359;53.048;8.732;2022-12-07T01:54:03;4.97;;;3.28;;
43744;SDS011;29359;53.048;8.732;2022-12-07T01:56:04;5.70;;;3.35;;
43744;SDS011;29359;53.048;8.732;2022-12-07T01:58:08;5.10;;;3.20;;
43744;SDS011;29359;53.048;8.732;2022-12-07T02:00:12;7.20;;;3.78;;
43744;SDS011;29359;53.048;8.732;2022-12-07T02:02:23;8.80;;;3.92;;
43744;SDS011;29359;53.048;8.732;2022-12-07T02:04:35;6.10;;;3.78;;
43744;SDS011;29359;53.048;8.732;2022-12-07T02:06:37;6.32;;;3.60;;
43744;SDS011;29359;53.048;8.732;2022-12-07T02:08:39;4.95;;;3.55;;
43744;SDS011;29359;53.048;8.732;2022-12-07T02:10:41;7.75;;;4.00;;
43744;SDS011;29359;53.048;8.732;2022-12-07T02:12:43;7.70;;;3.85;;
43744;SDS011;29359;53.048;8.732;2022-12-07T02:14:47;6.00;;;3.78;;
43744;SDS011;29359;53.048;8.732;2022-12-07T02:21:34;10.63;;;4.20;;
43744;SDS011;29359;53.048;8.732;2022-12-07T02:23:55;6.88;;;3.83;;
43744;SDS011;29359;53.048;8.732;2022-12-07T02:28:37;9.38;;;4.30;;
43744;SDS011;29359;53.048;8.732;2022-12-07T02:30:47;5.45;;;3.90;;
43744;SDS011;29359;53.048;8.732;2022-12-07T02:32:59;6.10;;;4.15;;
43744;SDS011;29359;53.048;8.732;2022-12-07T02:35:09;7.38;;;3.92;;
43744;SDS011;29359;53.048;8.732;2022-12-07T02:37:29;7.40;;;4.10;;
43744;SDS011;29359;53.048;8.732;2022-12-07T02:39:55;6.88;;;3.78;;
43744;SDS011;29359;53.048;8.732;2022-12-07T02:42:05;17.35;;;6.13;;
43744;SDS011;29359;53.048;8.732;2022-12-07T02:44:16;10.27;;;4.15;;
43744;SDS011;29359;53.048;8.732;2022-12-07T02:46:22;6.32;;;4.05;;
43744;SDS011;29359;53.048;8.732;2022-12-07T02:48:28;11.50;;;4.30;;
43744;SDS011;29359;53.048;8.732;2022-12-07T02:50:32;6.28;;;4.53;;
43744;SDS011;29359;53.048;8.732;2022-12-07T02:52:34;6.25;;;4.40;;
43744;SDS011;29359;53.048;8.732;2022-12-07T02:54:35;6.28;;;4.25;;
43744;SDS011;29359;53.048;8.732;2022-12-07T03:03:15;7.35;;;5.30;;
43744;SDS011;29359;53.048;8.732;2022-12-07T03:07:59;6.68;;;2.00;;
43744;SDS011;29359;53.048;8.732;2022-12-07T03:10:08;6.78;;;2.25;;
43744;SDS011;29359;53.048;8.732;2022-12-07T03:12:31;6.90;;;1.95;;
43744;SDS011;29359;53.048;8.732;2022-12-07T03:14:38;6.45;;;2.10;;
43744;SDS011;29359;53.048;8.732;2022-12-07T03:16:58;4.68;;;2.22;;
43744;SDS011;29359;53.048;8.732;2022-12-07T03:19:03;4.13;;;1.92;;
43744;SDS011;29359;53.048;8.732;2022-12-07T03:21:11;4.68;;;2.17;;
43744;SDS011;29359;53.048;8.732;2022-12-07T03:23:17;6.13;;;2.17;;
43744;SDS011;29359;53.048;8.732;2022-12-07T03:25:20;8.45;;;2.45;;
43744;SDS011;29359;53.048;8.732;2022-12-07T03:27:24;3.05;;;1.88;;
43744;SDS011;29359;53.048;8.732;2022-12-07T03:29:32;4.38;;;2.20;;
43744;SDS011;29359;53.048;8.732;2022-12-07T03:31:39;4.38;;;2.10;;
43744;SDS011;29359;53.048;8.732;2022-12-07T03:33:49;5.93;;;2.35;;
43744;SDS011;29359;53.048;8.732;2022-12-07T03:36:11;5.18;;;2.10;;
43744;SDS011;29359;53.048;8.732;2022-12-07T03:40:31;5.85;;;2.83;;
43744;SDS011;29359;53.048;8.732;2022-12-07T03:42:36;4.38;;;2.40;;
43744;SDS011;29359;53.048;8.732;2022-12-07T03:44:38;5.97;;;2.50;;
43744;SDS011;29359;53.048;8.732;2022-12-07T03:52:00;4.18;;;3.10;;
43744;SDS011;29359;53.048;8.732;2022-12-07T03:56:20;7.15;;;3.50;;
43744;SDS011;29359;53.048;8.732;2022-12-07T03:58:23;7.20;;;3.53;;
43744;SDS011;29359;53.048;8.732;2022-12-07T04:00:26;7.05;;;4.20;;
43744;SDS011;29359;53.048;8.732;2022-12-07T04:02:28;10.35;;;4.05;;
43744;SDS011;29359;53.048;8.732;2022-12-07T04:04:30;6.68;;;4.20;;
43744;SDS011;29359;53.048;8.732;2022-12-07T04:06:32;7.78;;;4.63;;
43744;SDS011;29359;53.048;8.732;2022-12-07T04:08:33;9.43;;;4.60;;
43744;SDS011;29359;53.048;8.732;2022-12-07T04:10:35;12.68;;;4.25;;
43744;SDS011;29359;53.048;8.732;2022-12-07T04:12:36;6.10;;;4.35;;
43744;SDS011;29359;53.048;8.732;2022-12-07T04:14:38;15.10;;;5.63;;
43744;SDS011;29359;53.048;8.732;2022-12-07T04:16:39;9.35;;;4.53;;
43744;SDS011;29359;53.048;8.732;2022-12-07T04:18:45;8.45;;;4.57;;
43744;SDS011;29359;53.048;8.732;2022-12-07T04:20:46;15.35;;;4.93;;
43744;SDS011;29359;53.048;8.732;2022-12-07T04:22:48;9.43;;;4.25;;
43744;SDS011;29359;53.048;8.732;2022-12-07T04:24:49;11.00;;;5.22;;
43744;SDS011;29359;53.048;8.732;2022-12-07T04:26:51;13.27;;;4.95;;
43744;SDS011;29359;53.048;8.732;2022-12-07T04:28:52;6.18;;;4.47;;
43744;SDS011;29359;53.048;8.732;2022-12-07T04:30:54;8.48;;;5.45;;
43744;SDS011;29359;53.048;8.732;2022-12-07T04:32:55;10.05;;;4.47;;
43744;SDS011;29359;53.048;8.732;2022-12-07T04:34:57;14.15;;;4.22;;
43744;SDS011;29359;53.048;8.732;2022-12-07T04:36:58;12.75;;;4.57;;
43744;SDS011;29359;53.048;8.732;2022-12-07T04:39:00;7.20;;;3.95;;
43744;SDS011;29359;53.048;8.732;2022-12-07T04:41:05;10.63;;;4.10;;
43744;SDS011;29359;53.048;8.732;2022-12-07T04:43:07;7.90;;;4.28;;
43744;SDS011;29359;53.048;8.732;2022-12-07T04:45:09;12.75;;;4.45;;
43744;SDS011;29359;53.048;8.732;2022-12-07T04:47:10;7.20;;;4.07;;
43744;SDS011;29359;53.048;8.732;2022-12-07T04:49:12;7.50;;;4.32;;
43744;SDS011;29359;53.048;8.732;2022-12-07T04:51:19;6.88;;;4.30;;
43744;SDS011;29359;53.048;8.732;2022-12-07T04:53:23;6.90;;;4.38;;
43744;SDS011;29359;53.048;8.732;2022-12-07T04:55:25;6.95;;;3.50;;
43744;SDS011;29359;53.048;8.732;2022-12-07T04:57:26;9.43;;;3.17;;
43744;SDS011;29359;53.048;8.732;2022-12-07T04:59:28;5.70;;;3.42;;
43744;SDS011;29359;53.048;8.732;2022-12-07T05:01:29;7.20;;;3.33;;
43744;SDS011;29359;53.048;8.732;2022-12-07T05:03:31;11.52;;;3.47;;
43744;SDS011;29359;53.048;8.732;2022-12-07T05:05:32;4.55;;;3.30;;
43744;SDS011;29359;53.048;8.732;2022-12-07T05:07:34;8.68;;;3.90;;
43744;SDS011;29359;53.048;8.732;2022-12-07T05:09:35;7.50;;;3.40;;
43744;SDS011;29359;53.048;8.732;2022-12-07T05:11:37;6.47;;;3.00;;
43744;SDS011;29359;53.048;8.732;2022-12-07T05:13:41;9.75;;;3.13;;
43744;SDS011;29359;53.048;8.732;2022-12-07T05:15:43;10.45;;;2.95;;
43744;SDS011;29359;53.048;8.732;2022-12-07T05:17:45;3.45;;;2.55;;
43744;SDS011;29359;53.048;8.732;2022-12-07T05:19:46;7.50;;;2.85;;
43744;SDS011;29359;53.048;8.732;2022-12-07T05:21:48;11.88;;;2.78;;
43744;SDS011;29359;53.048;8.732;2022-12-07T05:23:49;8.57;;;2.20;;
43744;SDS011;29359;53.048;8.732;2022-12-07T05:25:51;4.00;;;2.08;;
43744;SDS011;29359;53.048;8.732;2022-12-07T05:27:53;4.65;;;2.50;;
43744;SDS011;29359;53.048;8.732;2022-12-07T05:29:56;6.07;;;2.63;;
43744;SDS011;29359;53.048;8.732;2022-12-07T05:31:57;7.20;;;1.92;;
43744;SDS011;29359;53.048;8.732;2022-12-07T05:33:59;4.00;;;2.25;;
43744;SDS011;29359;53.048;8.732;2022-12-07T05:36:00;5.50;;;1.83;;
43744;SDS011;29359;53.048;8.732;2022-12-07T05:38:06;5.53;;;2.08;;
43744;SDS011;29359;53.048;8.732;2022-12-07T05:40:08;5.85;;;2.75;;
43744;SDS011;29359;53.048;8.732;2022-12-07T05:42:10;5.00;;;1.85;;
43744;SDS011;29359;53.048;8.732;2022-12-07T05:44:15;7.03;;;2.40;;
43744;SDS011;29359;53.048;8.732;2022-12-07T05:46:16;6.55;;;2.10;;
43744;SDS011;29359;53.048;8.732;2022-12-07T05:48:18;3.35;;;2.20;;
43744;SDS011;29359;53.048;8.732;2022-12-07T05:50:19;5.47;;;2.42;;
43744;SDS011;29359;53.048;8.732;2022-12-07T05:52:21;6.13;;;2.40;;
43744;SDS011;29359;53.048;8.732;2022-12-07T05:54:23;7.10;;;2.00;;
43744;SDS011;29359;53.048;8.732;2022-12-07T05:56:25;4.45;;;1.90;;
43744;SDS011;29359;53.048;8.732;2022-12-07T05:58:27;6.10;;;2.15;;
43744;SDS011;29359;53.048;8.732;2022-12-07T06:00:47;7.70;;;1.67;;
43744;SDS011;29359;53.048;8.732;2022-12-07T06:02:57;6.38;;;2.00;;
43744;SDS011;29359;53.048;8.732;2022-12-07T06:04:58;8.30;;;2.17;;
43744;SDS011;29359;53.048;8.732;2022-12-07T06:07:00;7.00;;;2.38;;
43744;SDS011;29359;53.048;8.732;2022-12-07T06:09:04;6.72;;;2.65;;
43744;SDS011;29359;53.048;8.732;2022-12-07T06:11:06;8.05;;;2.08;;
43744;SDS011;29359;53.048;8.732;2022-12-07T06:13:26;6.80;;;1.60;;
43744;SDS011;29359;53.048;8.732;2022-12-07T06:15:28;10.45;;;2.25;;
43744;SDS011;29359;53.048;8.732;2022-12-07T06:17:29;7.22;;;1.67;;
43744;SDS011;29359;53.048;8.732;2022-12-07T06:19:32;5.40;;;2.00;;
43744;SDS011;29359;53.048;8.732;2022-12-07T06:21:36;6.15;;;1.92;;
43744;SDS011;29359;53.048;8.732;2022-12-07T06:23:37;7.00;;;1.73;;
43744;SDS011;29359;53.048;8.732;2022-12-07T06:25:38;5.95;;;1.80;;
43744;SDS011;29359;53.048;8.732;2022-12-07T06:27:40;13.93;;;3.08;;
43744;SDS011;29359;53.048;8.732;2022-12-07T06:29:42;6.88;;;1.40;;
43744;SDS011;29359;53.048;8.732;2022-12-07T06:31:43;8.85;;;1.90;;
43744;SDS011;29359;53.048;8.732;2022-12-07T06:33:45;10.05;;;1.63;;
43744;SDS011;29359;53.048;8.732;2022-12-07T06:35:46;9.77;;;1.40;;
43744;SDS011;29359;53.048;8.732;2022-12-07T06:37:48;7.82;;;1.23;;
43744;SDS011;29359;53.048;8.732;2022-12-07T06:39:49;3.75;;;1.17;;
43744;SDS011;29359;53.048;8.732;2022-12-07T06:41:51;7.82;;;1.88;;
43744;SDS011;29359;53.048;8.732;2022-12-07T06:43:53;5.35;;;1.20;;
43744;SDS011;29359;53.048;8.732;2022-12-07T06:45:56;8.15;;;1.33;;
43744;SDS011;29359;53.048;8.732;2022-12-07T06:47:58;2.95;;;1.38;;
43744;SDS011;29359;53.048;8.732;2022-12-07T06:50:00;10.20;;;1.42;;
43744;SDS011;29359;53.048;8.732;2022-12-07T06:52:02;6.60;;;1.23;;
43744;SDS011;29359;53.048;8.732;2022-12-07T06:54:06;6.30;;;1.58;;
43744;SDS011;29359;53.048;8.732;2022-12-07T06:56:15;8.88;;;1.17;;
43744;SDS011;29359;53.048;8.732;2022-12-07T06:58:16;5.43;;;1.58;;
43744;SDS011;29359;53.048;8.732;2022-12-07T07:00:19;6.72;;;1.20;;
43744;SDS011;29359;53.048;8.732;2022-12-07T07:02:22;6.95;;;1.27;;
43744;SDS011;29359;53.048;8.732;2022-12-07T07:04:24;6.90;;;1.13;;
43744;SDS011;29359;53.048;8.732;2022-12-07T07:06:26;3.70;;;1.02;;
43744;SDS011;29359;53.048;8.732;2022-12-07T07:08:27;5.65;;;1.50;;
43744;SDS011;29359;53.048;8.732;2022-12-07T07:10:29;13.32;;;1.50;;
43744;SDS011;29359;53.048;8.732;2022-12-07T07:12:30;5.50;;;1.42;;
43744;SDS011;29359;53.048;8.732;2022-12-07T07:14:32;11.85;;;2.38;;
43744;SDS011;29359;53.048;8.732;2022-12-07T07:16:33;5.47;;;1.50;;
43744;SDS011;29359;53.048;8.732;2022-12-07T07:18:35;9.73;;;1.35;;
43744;SDS011;29359;53.048;8.732;2022-12-07T07:20:37;7.93;;;2.22;;
43744;SDS011;29359;53.048;8.732;2022-12-07T07:22:39;8.07;;;1.45;;
43744;SDS011;29359;53.048;8.732;2022-12-07T07:24:40;8.05;;;1.80;;
43744;SDS011;29359;53.048;8.732;2022-12-07T07:26:42;5.30;;;1.45;;
43744;SDS011;29359;53.048;8.732;2022-12-07T07:28:43;6.10;;;1.20;;
43744;SDS011;29359;53.048;8.732;2022-12-07T07:30:44;3.95;;;1.00;;
43744;SDS011;29359;53.048;8.732;2022-12-07T07:32:46;5.00;;;1.10;;
43744;SDS011;29359;53.048;8.732;2022-12-07T07:34:48;3.88;;;1.15;;
43744;SDS011;29359;53.048;8.732;2022-12-07T07:36:49;5.07;;;0.88;;
43744;SDS011;29359;53.048;8.732;2022-12-07T07:38:51;5.10;;;1.05;;
43744;SDS011;29359;53.048;8.732;2022-12-07T07:40:52;4.60;;;1.05;;
43744;SDS011;29359;53.048;8.732;2022-12-07T07:42:54;4.30;;;1.05;;
43744;SDS011;29359;53.048;8.732;2022-12-07T07:44:55;5.00;;;1.60;;
43744;SDS011;29359;53.048;8.732;2022-12-07T07:46:57;6.32;;;1.30;;
43744;SDS011;29359;53.048;8.732;2022-12-07T07:48:58;3.60;;;1.30;;
43744;SDS011;29359;53.048;8.732;2022-12-07T07:51:00;2.97;;;1.05;;
43744;SDS011;29359;53.048;8.732;2022-12-07T07:53:01;2.83;;;0.88;;
43744;SDS011;29359;53.048;8.732;2022-12-07T07:55:03;3.72;;;1.05;;
43744;SDS011;29359;53.048;8.732;2022-12-07T07:57:05;3.78;;;1.17;;
43744;SDS011;29359;53.048;8.732;2022-12-07T07:59:06;4.47;;;1.42;;
43744;SDS011;29359;53.048;8.732;2022-12-07T08:01:08;3.95;;;1.00;;
43744;SDS011;29359;53.048;8.732;2022-12-07T08:03:09;4.97;;;1.00;;
43744;SDS011;29359;53.048;8.732;2022-12-07T08:05:11;1.75;;;1.10;;
43744;SDS011;29359;53.048;8.732;2022-12-07T08:07:13;4.95;;;1.30;;
43744;SDS011;29359;53.048;8.732;2022-12-07T08:09:16;8.68;;;1.17;;
43744;SDS011;29359;53.048;8.732;2022-12-07T08:11:18;3.67;;;1.20;;
43744;SDS011;29359;53.048;8.732;2022-12-07T08:13:19;2.80;;;1.17;;
43744;SDS011;29359;53.048;8.732;2022-12-07T08:15:26;8.43;;;1.27;;
43744;SDS011;29359;53.048;8.732;2022-12-07T08:17:29;4.57;;;1.30;;
43744;SDS011;29359;53.048;8.732;2022-12-07T08:19:31;3.15;;;0.95;;
43744;SDS011;29359;53.048;8.732;2022-12-07T08:21:32;5.35;;;1.02;;
43744;SDS011;29359;53.048;8.732;2022-12-07T08:23:33;6.28;;;1.33;;
43744;SDS011;29359;53.048;8.732;2022-12-07T08:25:40;1.45;;;0.80;;
43744;SDS011;29359;53.048;8.732;2022-12-07T08:27:41;1.38;;;0.65;;
43744;SDS011;29359;53.048;8.732;2022-12-07T08:29:43;3.03;;;0.90;;
43744;SDS011;29359;53.048;8.732;2022-12-07T08:31:44;4.97;;;1.10;;
43744;SDS011;29359;53.048;8.732;2022-12-07T08:33:46;3.13;;;1.10;;
43744;SDS011;29359;53.048;8.732;2022-12-07T08:35:48;4.28;;;1.27;;
43744;SDS011;29359;53.048;8.732;2022-12-07T08:37:50;1.42;;;1.05;;
43744;SDS011;29359;53.048;8.732;2022-12-07T08:39:51;3.55;;;0.85;;
43744;SDS011;29359;53.048;8.732;2022-12-07T08:41:53;1.45;;;1.05;;
43744;SDS011;29359;53.048;8.732;2022-12-07T08:43:54;2.17;;;1.17;;
43744;SDS011;29359;53.048;8.732;2022-12-07T08:46:30;2.70;;;1.40;;
43744;SDS011;29359;53.048;8.732;2022-12-07T08:48:29;2.55;;;1.23;;
43744;SDS011;29359;53.048;8.732;2022-12-07T08:50:32;5.45;;;0.82;;
43744;SDS011;29359;53.048;8.732;2022-12-07T08:52:35;1.02;;;0.60;;
43744;SDS011;29359;53.048;8.732;2022-12-07T08:54:37;3.03;;;1.10;;
43744;SDS011;29359;53.048;8.732;2022-12-07T08:56:41;5.68;;;1.02;;
43744;SDS011;29359;53.048;8.732;2022-12-07T08:58:43;3.38;;;1.02;;
43744;SDS011;29359;53.048;8.732;2022-12-07T09:00:45;4.97;;;1.08;;
43744;SDS011;29359;53.048;8.732;2022-12-07T09:02:46;3.33;;;0.93;;
43744;SDS011;29359;53.048;8.732;2022-12-07T09:04:48;9.20;;;1.15;;
43744;SDS011;29359;53.048;8.732;2022-12-07T09:06:49;2.78;;;0.80;;
43744;SDS011;29359;53.048;8.732;2022-12-07T09:08:53;3.55;;;0.80;;
43744;SDS011;29359;53.048;8.732;2022-12-07T09:10:57;6.45;;;1.20;;
43744;SDS011;29359;53.048;8.732;2022-12-07T09:12:59;2.40;;;1.08;;
43744;SDS011;29359;53.048;8.732;2022-12-07T09:15:03;4.60;;;1.13;;
43744;SDS011;29359;53.048;8.732;2022-12-07T09:17:06;4.95;;;1.25;;
43744;SDS011;29359;53.048;8.732;2022-12-07T09:19:10;5.22;;;0.90;;
43744;SDS011;29359;53.048;8.732;2022-12-07T09:21:12;4.07;;;0.82;;
43744;SDS011;29359;53.048;8.732;2022-12-07T09:23:13;3.15;;;0.98;;
43744;SDS011;29359;53.048;8.732;2022-12-07T09:25:15;4.70;;;1.20;;
43744;SDS011;29359;53.048;8.732;2022-12-07T09:27:16;4.78;;;1.08;;
43744;SDS011;29359;53.048;8.732;2022-12-07T09:29:19;4.75;;;1.92;;
43744;SDS011;29359;53.048;8.732;2022-12-07T09:31:21;2.40;;;1.10;;
43744;SDS011;29359;53.048;8.732;2022-12-07T09:33:25;6.32;;;1.17;;
43744;SDS011;29359;53.048;8.732;2022-12-07T09:35:27;3.38;;;1.02;;
43744;SDS011;29359;53.048;8.732;2022-12-07T09:37:28;3.00;;;1.27;;
43744;SDS011;29359;53.048;8.732;2022-12-07T09:39:30;5.35;;;1.50;;
43744;SDS011;29359;53.048;8.732;2022-12-07T09:41:31;2.10;;;1.25;;
43744;SDS011;29359;53.048;8.732;2022-12-07T09:43:35;6.03;;;1.40;;
43744;SDS011;29359;53.048;8.732;2022-12-07T09:45:40;1.15;;;0.90;;
43744;SDS011;29359;53.048;8.732;2022-12-07T09:47:48;3.63;;;1.02;;
43744;SDS011;29359;53.048;8.732;2022-12-07T09:49:50;3.72;;;1.30;;
43744;SDS011;29359;53.048;8.732;2022-12-07T09:52:02;0.98;;;0.88;;
43744;SDS011;29359;53.048;8.732;2022-12-07T09:54:24;3.03;;;1.17;;
43744;SDS011;29359;53.048;8.732;2022-12-07T09:56:28;5.90;;;1.60;;
43744;SDS011;29359;53.048;8.732;2022-12-07T09:58:32;3.55;;;1.70;;
43744;SDS011;29359;53.048;8.732;2022-12-07T10:00:34;2.47;;;1.20;;
43744;SDS011;29359;53.048;8.732;2022-12-07T10:04:39;4.00;;;1.40;;
43744;SDS011;29359;53.048;8.732;2022-12-07T10:06:41;5.40;;;2.78;;
43744;SDS011;29359;53.048;8.732;2022-12-07T10:08:42;5.35;;;1.30;;
43744;SDS011;29359;53.048;8.732;2022-12-07T10:10:45;6.13;;;1.58;;
43744;SDS011;29359;53.048;8.732;2022-12-07T10:12:53;3.63;;;1.30;;
43744;SDS011;29359;53.048;8.732;2022-12-07T10:15:02;6.18;;;1.67;;
43744;SDS011;29359;53.048;8.732;2022-12-07T10:17:26;2.88;;;1.42;;
43744;SDS011;29359;53.048;8.732;2022-12-07T10:19:32;11.18;;;3.60;;
43744;SDS011;29359;53.048;8.732;2022-12-07T10:21:34;5.10;;;1.60;;
43744;SDS011;29359;53.048;8.732;2022-12-07T10:23:37;2.92;;;1.40;;
43744;SDS011;29359;53.048;8.732;2022-12-07T10:25:40;3.28;;;0.95;;
43744;SDS011;29359;53.048;8.732;2022-12-07T10:27:43;4.38;;;1.25;;
43744;SDS011;29359;53.048;8.732;2022-12-07T10:29:58;8.63;;;1.10;;
43744;SDS011;29359;53.048;8.732;2022-12-07T10:34:03;6.75;;;1.38;;
43744;SDS011;29359;53.048;8.732;2022-12-07T10:36:18;6.07;;;1.40;;
43744;SDS011;29359;53.048;8.732;2022-12-07T10:38:23;6.88;;;1.17;;
43744;SDS011;29359;53.048;8.732;2022-12-07T10:42:30;5.15;;;2.67;;
43744;SDS011;29359;53.048;8.732;2022-12-07T10:44:33;22.10;;;9.32;;
43744;SDS011;29359;53.048;8.732;2022-12-07T10:46:43;17.38;;;9.80;;
43744;SDS011;29359;53.048;8.732;2022-12-07T10:51:27;7.80;;;2.15;;
43744;SDS011;29359;53.048;8.732;2022-12-07T11:03:55;16.92;;;10.55;;
43744;SDS011;29359;53.048;8.732;2022-12-07T11:08:24;5.15;;;2.17;;
43744;SDS011;29359;53.048;8.732;2022-12-07T11:20:15;10.00;;;2.10;;
43744;SDS011;29359;53.048;8.732;2022-12-07T11:27:14;2.15;;;1.30;;
43744;SDS011;29359;53.048;8.732;2022-12-07T11:32:04;4.70;;;1.30;;
43744;SDS011;29359;53.048;8.732;2022-12-07T11:34:45;4.80;;;1.00;;
43744;SDS011;29359;53.048;8.732;2022-12-07T11:36:49;7.60;;;1.83;;
43744;SDS011;29359;53.048;8.732;2022-12-07T11:38:54;3.53;;;1.10;;
43744;SDS011;29359;53.048;8.732;2022-12-07T11:41:00;4.57;;;1.33;;
43744;SDS011;29359;53.048;8.732;2022-12-07T11:45:26;4.10;;;1.27;;
43744;SDS011;29359;53.048;8.732;2022-12-07T11:47:32;3.85;;;1.10;;
43744;SDS011;29359;53.048;8.732;2022-12-07T11:49:53;4.68;;;1.20;;
43744;SDS011;29359;53.048;8.732;2022-12-07T11:51:58;4.32;;;1.25;;
43744;SDS011;29359;53.048;8.732;2022-12-07T11:54:05;3.97;;;1.30;;
43744;SDS011;29359;53.048;8.732;2022-12-07T11:56:17;6.95;;;1.58;;
43744;SDS011;29359;53.048;8.732;2022-12-07T12:00:33;4.78;;;1.00;;
43744;SDS011;29359;53.048;8.732;2022-12-07T12:02:38;4.70;;;1.33;;
43744;SDS011;29359;53.048;8.732;2022-12-07T12:04:52;12.27;;;1.90;;
43744;SDS011;29359;53.048;8.732;2022-12-07T12:07:18;4.50;;;1.38;;
43744;SDS011;29359;53.048;8.732;2022-12-07T12:17:12;6.78;;;1.05;;
43744;SDS011;29359;53.048;8.732;2022-12-07T12:21:26;3.40;;;1.00;;
43744;SDS011;29359;53.048;8.732;2022-12-07T12:25:59;5.47;;;1.30;;
43744;SDS011;29359;53.048;8.732;2022-12-07T12:28:02;4.80;;;1.13;;
43744;SDS011;29359;53.048;8.732;2022-12-07T12:30:05;7.60;;;1.08;;
43744;SDS011;29359;53.048;8.732;2022-12-07T12:32:42;3.35;;;0.95;;
43744;SDS011;29359;53.048;8.732;2022-12-07T12:36:53;9.32;;;1.15;;
43744;SDS011;29359;53.048;8.732;2022-12-07T12:41:00;2.90;;;1.08;;
43744;SDS011;29359;53.048;8.732;2022-12-07T12:43:02;6.93;;;1.30;;
43744;SDS011;29359;53.048;8.732;2022-12-07T12:47:39;11.43;;;1.80;;
43744;SDS011;29359;53.048;8.732;2022-12-07T12:55:01;5.18;;;1.40;;
43744;SDS011;29359;53.048;8.732;2022-12-07T13:01:40;9.77;;;3.70;;
43744;SDS011;29359;53.048;8.732;2022-12-07T13:03:53;7.72;;;1.88;;
43744;SDS011;29359;53.048;8.732;2022-12-07T13:08:25;4.95;;;1.10;;
43744;SDS011;29359;53.048;8.732;2022-12-07T13:10:37;7.85;;;2.03;;
43744;SDS011;29359;53.048;8.732;2022-12-07T13:12:41;7.43;;;1.13;;
43744;SDS011;29359;53.048;8.732;2022-12-07T13:17:01;3.65;;;1.50;;
43744;SDS011;29359;53.048;8.732;2022-12-07T13:19:25;8.90;;;2.55;;
43744;SDS011;29359;53.048;8.732;2022-12-07T13:21:47;5.18;;;1.50;;
43744;SDS011;29359;53.048;8.732;2022-12-07T13:28:18;9.82;;;4.65;;
43744;SDS011;29359;53.048;8.732;2022-12-07T13:30:22;7.13;;;1.80;;
43744;SDS011;29359;53.048;8.732;2022-12-07T13:32:28;5.95;;;1.35;;
43744;SDS011;29359;53.048;8.732;2022-12-07T13:34:35;2.35;;;1.02;;
43744;SDS011;29359;53.048;8.732;2022-12-07T13:36:38;6.20;;;1.08;;
43744;SDS011;29359;53.048;8.732;2022-12-07T13:38:47;8.00;;;2.33;;
43744;SDS011;29359;53.048;8.732;2022-12-07T13:43:26;4.43;;;1.80;;
43744;SDS011;29359;53.048;8.732;2022-12-07T13:45:32;7.50;;;1.73;;
43744;SDS011;29359;53.048;8.732;2022-12-07T13:47:53;5.72;;;1.40;;
43744;SDS011;29359;53.048;8.732;2022-12-07T13:49:58;3.17;;;1.15;;
43744;SDS011;29359;53.048;8.732;2022-12-07T13:54:21;6.38;;;1.30;;
43744;SDS011;29359;53.048;8.732;2022-12-07T13:56:26;3.63;;;0.80;;
43744;SDS011;29359;53.048;8.732;2022-12-07T13:58:32;4.78;;;1.17;;
43744;SDS011;29359;53.048;8.732;2022-12-07T14:00:34;4.18;;;0.90;;
43744;SDS011;29359;53.048;8.732;2022-12-07T14:02:36;2.47;;;0.80;;
43744;SDS011;29359;53.048;8.732;2022-12-07T14:04:45;4.00;;;0.80;;
43744;SDS011;29359;53.048;8.732;2022-12-07T14:06:50;2.42;;;0.95;;
43744;SDS011;29359;53.048;8.732;2022-12-07T14:11:32;4.40;;;0.98;;
43744;SDS011;29359;53.048;8.732;2022-12-07T14:13:38;5.13;;;1.02;;
43744;SDS011;29359;53.048;8.732;2022-12-07T14:15:45;3.33;;;1.10;;
43744;SDS011;29359;53.048;8.732;2022-12-07T14:17:52;5.65;;;0.95;;
43744;SDS011;29359;53.048;8.732;2022-12-07T14:19:58;4.45;;;1.00;;
43744;SDS011;29359;53.048;8.732;2022-12-07T14:22:06;3.05;;;0.82;;
43744;SDS011;29359;53.048;8.732;2022-12-07T14:26:21;3.40;;;0.90;;